createdAt,value
2018-05-02T00:00:08.531Z,6.03
2018-05-02T00:02:38.129Z,6.82
2018-05-02T00:05:07.743Z,6.27
2018-05-02T00:07:36.821Z,6.15
2018-05-02T00:10:08.942Z,6.10
2018-05-02T00:12:38.004Z,6.05
2018-05-02T00:15:10.983Z,6.02
2018-05-02T00:17:42.103Z,5.97
2018-05-02T00:20:10.960Z,5.91
2018-05-02T00:22:41.319Z,5.86
2018-05-02T00:25:15.916Z,5.81
2018-05-02T00:27:47.508Z,5.76
2018-05-02T00:30:16.243Z,5.72
2018-05-02T00:32:56.885Z,5.68
2018-05-02T00:35:27.736Z,5.62
2018-05-02T00:38:00.574Z,5.55
2018-05-02T00:40:31.687Z,5.45
2018-05-02T00:43:03.425Z,5.37
2018-05-02T00:45:33.183Z,5.27
2018-05-02T00:48:03.870Z,5.20
2018-05-02T00:50:33.393Z,5.13
2018-05-02T00:53:03.731Z,5.10
2018-05-02T00:55:34.829Z,5.92
2018-05-02T00:58:07.284Z,5.34
2018-05-02T01:00:36.373Z,5.16
2018-05-02T01:03:06.224Z,5.06
2018-05-02T01:05:35.280Z,4.99
2018-05-02T01:08:07.525Z,4.89
2018-05-02T01:10:50.346Z,4.79
2018-05-02T01:13:20.964Z,4.70
2018-05-02T01:15:51.573Z,4.63
2018-05-02T01:18:24.869Z,4.53
2018-05-02T01:20:53.700Z,4.50
2018-05-02T01:23:22.630Z,4.48
2018-05-02T01:25:51.484Z,4.45
2018-05-02T01:28:20.244Z,5.27
2018-05-02T01:30:48.853Z,4.71
2018-05-02T01:33:17.439Z,4.56
2018-05-02T01:35:46.077Z,4.46
2018-05-02T01:38:14.681Z,4.39
2018-05-02T01:40:43.313Z,4.36
2018-05-02T01:43:12.094Z,4.34
2018-05-02T01:45:40.748Z,4.34
2018-05-02T01:50:57.332Z,5.22
2018-05-02T01:53:29.114Z,4.66
2018-05-02T01:55:57.761Z,4.54
2018-05-02T01:58:26.393Z,4.48
2018-05-02T02:00:55.024Z,5.28
2018-05-02T02:03:23.617Z,4.73
2018-05-02T02:05:52.257Z,5.40
2018-05-02T02:08:20.855Z,4.79
2018-05-02T02:10:49.507Z,4.63
2018-05-02T02:13:18.114Z,4.55
2018-05-02T02:15:46.753Z,4.46
2018-05-02T02:18:15.359Z,4.39
2018-05-02T02:20:44.001Z,4.35
2018-05-02T02:23:12.590Z,5.15
2018-05-02T02:25:41.211Z,4.63
2018-05-02T02:28:09.836Z,4.50
2018-05-02T02:30:38.452Z,4.45
2018-05-02T02:33:07.081Z,4.38
2018-05-02T02:35:35.673Z,5.17
2018-05-02T02:38:04.314Z,4.62
2018-05-02T02:40:32.942Z,4.50
2018-05-02T02:43:04.126Z,4.45
2018-05-02T02:45:33.181Z,4.43
2018-05-02T02:48:02.204Z,4.42
2018-05-02T02:50:30.902Z,4.39
2018-05-02T02:52:59.859Z,4.36
2018-05-02T02:55:28.757Z,4.32
2018-05-02T02:57:57.862Z,4.29
2018-05-02T03:00:26.769Z,4.26
2018-05-02T03:02:55.903Z,4.25
2018-05-02T03:05:24.999Z,4.23
2018-05-02T03:07:54.032Z,4.24
2018-05-02T03:10:23.171Z,4.23
2018-05-02T03:12:52.608Z,4.23
2018-05-02T03:15:22.188Z,4.21
2018-05-02T03:17:51.137Z,4.17
2018-05-02T03:20:19.718Z,4.13
2018-05-02T03:22:48.307Z,4.11
2018-05-02T03:25:16.998Z,4.07
2018-05-02T03:27:45.548Z,4.06
2018-05-02T03:30:14.638Z,4.03
2018-05-02T03:32:43.742Z,4.01
2018-05-02T03:35:12.628Z,4.00
2018-05-02T03:37:41.498Z,4.03
2018-05-02T03:40:15.600Z,4.07
2018-05-02T03:42:45.024Z,4.95
2018-05-02T03:45:13.904Z,4.47
2018-05-02T03:47:42.870Z,4.43
2018-05-02T03:50:11.702Z,4.44
2018-05-02T03:52:40.556Z,4.47
2018-05-02T03:55:09.525Z,4.48
2018-05-02T03:57:38.677Z,4.50
2018-05-02T04:00:44.309Z,4.50
2018-05-02T04:03:50.067Z,4.45
2018-05-02T04:06:55.682Z,4.45
2018-05-02T04:09:24.278Z,4.47
2018-05-02T04:11:53.017Z,4.55
2018-05-02T04:14:21.613Z,5.47
2018-05-02T04:16:51.403Z,5.01
2018-05-02T04:19:20.019Z,4.99
2018-05-02T04:21:48.654Z,5.05
2018-05-02T04:24:23.425Z,5.13
2018-05-02T04:26:49.916Z,5.22
2018-05-02T04:29:18.989Z,6.20
2018-05-02T04:31:48.057Z,5.70
2018-05-02T04:34:17.017Z,5.67
2018-05-02T04:36:46.143Z,5.71
2018-05-02T04:39:15.049Z,6.69
2018-05-02T04:41:44.016Z,6.23
2018-05-02T04:44:13.014Z,6.23
2018-05-02T04:46:42.045Z,6.28
2018-05-02T04:49:10.915Z,6.36
2018-05-02T04:51:39.991Z,6.45
2018-05-02T04:54:08.749Z,6.55
2018-05-02T04:56:37.729Z,6.64
2018-05-02T04:59:08.235Z,6.75
2018-05-02T05:01:36.853Z,6.86
2018-05-02T05:04:05.497Z,7.88
2018-05-02T05:06:34.531Z,7.39
2018-05-02T05:09:03.497Z,7.39
2018-05-02T05:11:47.631Z,8.37
2018-05-02T05:14:16.292Z,8.71
2018-05-02T05:16:46.974Z,8.16
2018-05-02T05:19:15.632Z,8.11
2018-05-02T05:22:02.295Z,8.13
2018-05-02T05:24:32.354Z,8.16
2018-05-02T05:27:09.098Z,8.21
2018-05-02T05:29:39.807Z,8.26
2018-05-02T05:32:08.430Z,8.32
2018-05-02T05:34:39.967Z,8.40
2018-05-02T05:37:11.784Z,8.51
2018-05-02T05:39:47.200Z,8.60
2018-05-02T05:42:19.369Z,8.71
2018-05-02T05:44:48.018Z,8.83
2018-05-02T05:47:16.623Z,8.97
2018-05-02T05:49:47.382Z,9.11
2018-05-02T05:52:16.918Z,9.25
2018-05-02T05:54:45.578Z,9.40
2018-05-02T05:57:17.425Z,9.53
2018-05-02T05:59:46.066Z,9.68
2018-05-02T06:02:14.685Z,9.86
2018-05-02T06:04:43.790Z,10.04
2018-05-02T06:07:29.626Z,10.24
2018-05-02T06:09:58.303Z,10.45
2018-05-02T06:12:28.983Z,10.57
2018-05-02T06:15:04.771Z,10.73
2018-05-02T06:17:33.420Z,10.87
2018-05-02T06:20:04.246Z,11.05
2018-05-02T06:22:35.392Z,11.19
2018-05-02T06:25:06.377Z,11.34
2018-05-02T06:27:35.026Z,11.49
2018-05-02T06:30:04.539Z,11.59
2018-05-02T06:32:33.642Z,11.76
2018-05-02T06:35:02.306Z,11.95
2018-05-02T06:37:37.534Z,12.10
2018-05-02T06:40:08.389Z,12.27
2018-05-02T06:42:39.900Z,12.45
2018-05-02T06:45:10.962Z,12.59
2018-05-02T06:47:44.136Z,12.77
2018-05-02T06:50:15.184Z,12.86
2018-05-02T06:52:45.662Z,12.97
2018-05-02T06:55:15.191Z,13.13
2018-05-02T06:57:43.858Z,13.27
2018-05-02T07:00:12.474Z,13.36
2018-05-02T07:02:49.368Z,13.54
2018-05-02T07:05:26.010Z,13.65
2018-05-02T07:08:02.828Z,13.80
2018-05-02T07:10:31.555Z,15.26
2018-05-02T07:13:07.430Z,14.54
2018-05-02T07:15:37.133Z,14.51
2018-05-02T07:18:06.422Z,14.56
2018-05-02T07:20:35.033Z,15.89
2018-05-02T07:23:12.346Z,15.11
2018-05-02T07:25:42.130Z,15.11
2018-05-02T07:28:13.042Z,15.17
2018-05-02T07:30:47.868Z,16.55
2018-05-02T07:33:16.472Z,15.76
2018-05-02T07:35:45.108Z,15.66
2018-05-02T07:38:13.975Z,15.63
2018-05-02T07:40:42.956Z,15.60
2018-05-02T07:43:14.472Z,15.68
2018-05-02T07:45:43.119Z,15.64
2018-05-02T07:48:15.850Z,15.68
2018-05-02T07:50:43.073Z,15.67
2018-05-02T07:53:22.685Z,15.68
2018-05-02T07:56:09.536Z,15.69
2018-05-02T07:58:38.258Z,15.74
2018-05-02T08:01:09.584Z,15.95
2018-05-02T08:03:44.688Z,15.96
2018-05-02T08:06:14.966Z,15.98
2018-05-02T08:08:45.142Z,16.14
2018-05-02T08:11:15.619Z,17.69
2018-05-02T08:13:44.541Z,16.84
2018-05-02T08:16:13.590Z,16.74
2018-05-02T08:18:42.249Z,16.67
2018-05-02T08:21:10.906Z,16.69
2018-05-02T08:23:39.545Z,16.75
2018-05-02T08:26:08.415Z,16.85
2018-05-02T08:28:37.112Z,17.11
2018-05-02T08:31:06.217Z,17.22
2018-05-02T08:33:34.824Z,17.43
2018-05-02T08:36:10.861Z,17.66
2018-05-02T08:38:56.350Z,19.42
2018-05-02T08:41:12.350Z,18.68
2018-05-02T08:43:49.874Z,18.66
2018-05-02T08:46:18.466Z,20.22
2018-05-02T08:48:49.481Z,19.32
2018-05-02T08:51:18.526Z,19.32
2018-05-02T08:53:49.452Z,19.27
2018-05-02T08:56:18.561Z,19.43
2018-05-02T08:58:54.826Z,19.56
2018-05-02T09:01:28.164Z,19.53
2018-05-02T09:03:58.927Z,19.61
2018-05-02T09:06:35.664Z,19.73
2018-05-02T09:09:05.134Z,19.79
2018-05-02T09:11:36.149Z,19.79
2018-05-02T09:14:07.590Z,19.75
2018-05-02T09:16:38.575Z,19.55
2018-05-02T09:19:09.711Z,19.66
2018-05-02T09:21:42.972Z,19.83
2018-05-02T09:24:12.102Z,19.69
2018-05-02T09:26:41.100Z,19.73
2018-05-02T09:29:12.149Z,19.75
2018-05-02T09:31:43.381Z,19.89
2018-05-02T09:34:21.243Z,19.97
2018-05-02T09:36:50.482Z,19.97
2018-05-02T09:39:19.167Z,20.10
2018-05-02T09:41:47.793Z,20.33
2018-05-02T09:44:25.912Z,20.39
2018-05-02T09:46:56.946Z,20.32
2018-05-02T09:49:26.098Z,20.50
2018-05-02T09:51:58.437Z,20.76
2018-05-02T09:54:30.219Z,20.97
2018-05-02T09:56:58.865Z,20.98
2018-05-02T09:59:31.192Z,21.13
2018-05-02T10:02:01.475Z,21.21
2018-05-02T10:04:35.009Z,22.90
2018-05-02T10:07:08.342Z,21.53
2018-05-02T10:09:39.251Z,21.06
2018-05-02T10:12:07.907Z,20.84
2018-05-02T10:14:39.152Z,20.48
2018-05-02T10:17:08.560Z,20.19
2018-05-02T10:19:37.447Z,20.05
2018-05-02T10:24:58.173Z,19.44
2018-05-02T10:27:30.046Z,19.64
2018-05-02T10:30:17.575Z,19.80
2018-05-02T10:32:50.211Z,19.85
2018-05-02T10:35:29.181Z,19.70
2018-05-02T10:37:58.533Z,19.60
2018-05-02T10:40:27.616Z,19.42
2018-05-02T10:42:59.977Z,19.20
2018-05-02T10:45:32.774Z,19.12
2018-05-02T10:50:57.464Z,19.25
2018-05-02T10:53:28.794Z,19.09
2018-05-02T10:56:18.553Z,18.90
2018-05-02T10:58:49.898Z,18.77
2018-05-02T11:01:18.509Z,18.65
2018-05-02T11:03:47.186Z,18.53
2018-05-02T11:06:16.200Z,18.26
2018-05-02T11:08:52.004Z,18.22
2018-05-02T11:11:20.603Z,18.09
2018-05-02T11:13:49.247Z,18.03
2018-05-02T11:16:21.635Z,18.13
2018-05-02T11:18:50.695Z,18.36
2018-05-02T11:21:19.804Z,18.58
2018-05-02T11:23:52.177Z,18.70
2018-05-02T11:26:21.222Z,20.57
2018-05-02T11:28:57.187Z,21.05
2018-05-02T11:31:27.809Z,20.00
2018-05-02T11:33:56.629Z,19.97
2018-05-02T11:36:25.234Z,20.02
2018-05-02T11:38:54.548Z,19.88
2018-05-02T11:41:23.287Z,20.12
2018-05-02T11:43:53.693Z,20.21
2018-05-02T11:46:22.304Z,20.37
2018-05-02T11:48:50.939Z,20.51
2018-05-02T11:51:19.714Z,20.38
2018-05-02T11:53:50.389Z,20.38
2018-05-02T11:56:19.699Z,20.41
2018-05-02T11:58:49.034Z,20.41
2018-05-02T12:04:10.670Z,20.33
2018-05-02T12:06:39.257Z,22.08
2018-05-02T12:09:08.410Z,20.51
2018-05-02T12:11:39.500Z,20.29
2018-05-02T12:14:27.518Z,20.39
2018-05-02T12:17:02.211Z,20.36
2018-05-02T12:19:31.009Z,20.28
2018-05-02T12:22:02.867Z,20.42
2018-05-02T12:24:36.171Z,20.32
2018-05-02T12:27:26.577Z,21.66
2018-05-02T12:30:03.661Z,21.74
2018-05-02T12:32:36.192Z,20.37
2018-05-02T12:35:11.314Z,20.18
2018-05-02T12:37:45.790Z,22.11
2018-05-02T12:43:25.128Z,20.99
2018-05-02T12:51:38.957Z,20.85
2018-05-02T12:54:12.936Z,22.86
2018-05-02T12:56:42.753Z,23.32
2018-05-02T12:59:24.699Z,22.06
2018-05-02T13:04:46.198Z,22.06
2018-05-02T13:13:08.060Z,22.54
2018-05-02T13:18:36.150Z,23.86
2018-05-02T13:21:06.986Z,22.64
2018-05-02T13:23:36.313Z,24.18
2018-05-02T13:26:05.926Z,23.14
2018-05-02T13:28:37.329Z,24.46
2018-05-02T13:31:06.226Z,23.32
2018-05-02T13:33:36.655Z,22.91
2018-05-02T13:36:07.325Z,24.16
2018-05-02T13:38:39.312Z,22.53
2018-05-02T13:41:08.312Z,23.42
2018-05-02T13:46:29.147Z,21.39
2018-05-02T13:48:58.692Z,22.56
2018-05-02T13:51:30.010Z,21.19
2018-05-02T13:54:01.537Z,22.50
2018-05-02T13:56:33.205Z,21.15
2018-05-02T13:59:10.156Z,21.00
2018-05-02T14:01:42.364Z,20.79
2018-05-02T14:04:14.352Z,20.47
2018-05-02T14:06:43.793Z,20.42
2018-05-02T14:09:20.114Z,20.23
2018-05-02T14:11:48.741Z,20.05
2018-05-02T14:14:17.599Z,19.92
2018-05-02T14:16:46.220Z,19.87
2018-05-02T14:19:14.828Z,19.72
2018-05-02T14:21:43.486Z,19.66
2018-05-02T14:24:23.865Z,19.72
2018-05-02T14:26:55.448Z,19.64
2018-05-02T14:29:24.434Z,19.59
2018-05-02T14:31:58.862Z,19.54
2018-05-02T14:34:27.811Z,19.50
2018-05-02T14:36:59.321Z,19.44
2018-05-02T14:39:31.044Z,19.61
2018-05-02T14:42:11.668Z,20.97
2018-05-02T14:44:48.221Z,19.89
2018-05-02T14:47:17.316Z,19.78
2018-05-02T14:49:57.833Z,21.24
2018-05-02T14:52:24.463Z,20.29
2018-05-02T14:55:03.752Z,20.16
2018-05-02T15:03:16.088Z,19.58
2018-05-02T15:05:49.541Z,19.55
2018-05-02T15:08:31.726Z,19.46
2018-05-02T15:11:00.820Z,19.34
2018-05-02T15:13:48.221Z,19.24
2018-05-02T15:16:19.954Z,19.22
2018-05-02T15:21:45.490Z,19.19
2018-05-02T15:24:18.383Z,18.82
2018-05-02T15:29:50.778Z,18.39
2018-05-02T15:32:33.088Z,19.61
2018-05-02T15:35:03.265Z,18.44
2018-05-02T15:37:38.339Z,18.25
2018-05-02T15:40:22.283Z,18.07
2018-05-02T15:42:54.108Z,17.98
2018-05-02T15:45:27.353Z,19.13
2018-05-02T15:47:59.830Z,18.26
2018-05-02T15:50:30.223Z,18.03
2018-05-02T15:58:51.533Z,17.76
2018-05-02T16:01:28.203Z,17.74
2018-05-02T16:04:01.986Z,18.81
2018-05-02T16:12:26.199Z,17.99
2018-05-02T16:15:01.208Z,17.79
2018-05-02T16:17:31.294Z,17.60
2018-05-02T16:23:07.082Z,18.67
2018-05-02T16:25:47.922Z,17.79
2018-05-02T16:28:17.301Z,17.48
2018-05-02T16:33:41.563Z,17.16
2018-05-02T16:36:15.532Z,17.05
2018-05-02T16:38:59.158Z,16.94
2018-05-02T16:41:31.328Z,17.83
2018-05-02T16:46:51.360Z,17.86
2018-05-02T16:49:29.828Z,17.11
2018-05-02T16:52:06.605Z,16.88
2018-05-02T16:54:40.760Z,16.71
2018-05-02T16:57:24.660Z,16.62
2018-05-02T17:02:58.695Z,16.36
2018-05-02T17:05:30.430Z,16.31
2018-05-02T17:08:03.861Z,16.20
2018-05-02T17:10:38.984Z,16.15
2018-05-02T17:13:17.295Z,16.07
2018-05-02T17:15:55.508Z,15.95
2018-05-02T17:21:17.748Z,15.85
2018-05-02T17:23:59.866Z,15.77
2018-05-02T17:26:35.202Z,15.71
2018-05-02T17:29:07.699Z,15.65
2018-05-02T17:31:49.402Z,15.60
2018-05-02T17:34:32.789Z,16.43
2018-05-02T17:37:04.062Z,15.70
2018-05-02T17:39:45.341Z,15.58
2018-05-02T17:47:58.697Z,16.42
2018-05-02T17:50:51.647Z,15.68
2018-05-02T17:53:34.826Z,15.50
2018-05-02T17:56:05.301Z,15.38
2018-05-02T17:58:40.716Z,15.26
2018-05-02T18:01:14.779Z,15.21
2018-05-02T18:03:50.511Z,15.17
2018-05-02T18:06:27.690Z,15.18
2018-05-02T18:09:07.473Z,16.03
2018-05-02T18:11:41.809Z,15.41
2018-05-02T18:14:15.191Z,16.09
2018-05-02T18:16:55.633Z,15.44
2018-05-02T18:19:39.680Z,15.29
2018-05-02T18:22:10.049Z,15.19
2018-05-02T18:24:46.334Z,15.12
2018-05-02T18:32:58.103Z,14.89
2018-05-02T18:35:32.404Z,15.68
2018-05-02T18:38:09.928Z,14.99
2018-05-02T18:40:42.155Z,14.85
2018-05-02T18:46:03.578Z,14.71
2018-05-02T18:54:17.001Z,15.45
2018-05-02T19:02:47.853Z,15.49
2018-05-02T19:05:25.044Z,14.83
2018-05-02T19:22:38.762Z,14.37
2018-05-02T19:28:19.372Z,14.25
2018-05-02T19:36:53.347Z,14.12
2018-05-02T19:42:39.144Z,14.92
2018-05-02T19:48:00.599Z,14.13
2018-05-02T19:50:35.751Z,14.06
2018-05-02T19:53:19.668Z,13.99
2018-05-02T19:55:56.616Z,13.93
2018-05-02T19:58:36.033Z,14.77
2018-05-02T20:07:33.755Z,14.25
2018-05-02T20:10:28.030Z,14.94
2018-05-02T20:13:32.366Z,15.07
2018-05-02T20:21:53.660Z,14.10
2018-05-02T20:24:24.506Z,14.86
2018-05-02T20:26:59.637Z,14.25
2018-05-02T20:29:42.952Z,14.08
2018-05-02T21:12:21.136Z,13.36
2018-05-02T21:14:57.935Z,13.30
2018-05-02T21:20:31.421Z,13.46
2018-05-02T21:51:23.122Z,13.05
2018-05-02T23:39:13.601Z,11.62
2018-05-02T23:41:55.626Z,11.50
2018-05-02T23:52:57.455Z,11.02
